sensor_id;sensor_type;location;lat;lon;timestamp;pressure;altitude;pressure_sealevel;temperature;humidity
72414;BME280;60995;52.154;4.498;2023-03-03T00:00:49;102562.03;;;3.81;82.61
72414;BME280;60995;52.154;4.498;2023-03-03T00:03:07;102563.94;;;3.78;82.95
72414;BME280;60995;52.154;4.498;2023-03-03T00:05:26;102567.56;;;3.77;83.34
72414;BME280;60995;52.154;4.498;2023-03-03T00:07:43;102560.38;;;3.77;83.01
72414;BME280;60995;52.154;4.498;2023-03-03T00:10:00;102567.75;;;3.71;83.80
72414;BME280;60995;52.154;4.498;2023-03-03T00:12:24;102562.53;;;3.66;83.63
72414;BME280;60995;52.154;4.498;2023-03-03T00:14:42;102573.13;;;3.71;83.79
72414;BME280;60995;52.154;4.498;2023-03-03T00:17:00;102576.63;;;3.73;83.90
72414;BME280;60995;52.154;4.498;2023-03-03T00:19:37;102574.00;;;3.71;83.83
72414;BME280;60995;52.154;4.498;2023-03-03T00:21:57;102576.59;;;3.74;84.00
72414;BME280;60995;52.154;4.498;2023-03-03T00:24:14;102578.44;;;3.72;84.35
72414;BME280;60995;52.154;4.498;2023-03-03T00:26:41;102572.16;;;3.73;84.19
72414;BME280;60995;52.154;4.498;2023-03-03T00:29:02;102578.06;;;3.85;83.88
72414;BME280;60995;52.154;4.498;2023-03-03T00:31:35;102571.22;;;3.74;83.85
72414;BME280;60995;52.154;4.498;2023-03-03T00:33:53;102578.63;;;3.66;84.78
72414;BME280;60995;52.154;4.498;2023-03-03T00:36:34;102577.31;;;3.79;84.50
72414;BME280;60995;52.154;4.498;2023-03-03T00:38:52;102583.56;;;3.80;84.43
72414;BME280;60995;52.154;4.498;2023-03-03T00:41:24;102580.03;;;3.78;84.50
72414;BME280;60995;52.154;4.498;2023-03-03T00:43:42;102581.06;;;3.74;84.33
72414;BME280;60995;52.154;4.498;2023-03-03T00:45:59;102577.31;;;3.79;84.39
72414;BME280;60995;52.154;4.498;2023-03-03T00:48:41;102579.16;;;3.77;84.14
72414;BME280;60995;52.154;4.498;2023-03-03T00:50:59;102577.31;;;3.79;84.14
72414;BME280;60995;52.154;4.498;2023-03-03T00:53:25;102581.72;;;3.82;84.40
72414;BME280;60995;52.154;4.498;2023-03-03T00:55:47;102580.94;;;3.78;84.05
72414;BME280;60995;52.154;4.498;2023-03-03T00:58:05;102589.91;;;3.77;84.27
72414;BME280;60995;52.154;4.498;2023-03-03T01:00:21;102583.44;;;3.83;84.40
72414;BME280;60995;52.154;4.498;2023-03-03T01:02:38;102584.22;;;3.87;83.89
72414;BME280;60995;52.154;4.498;2023-03-03T01:04:54;102580.81;;;3.81;83.87
72414;BME280;60995;52.154;4.498;2023-03-03T01:07:11;102590.63;;;3.83;83.48
72414;BME280;60995;52.154;4.498;2023-03-03T01:09:27;102584.34;;;3.84;83.37
72414;BME280;60995;52.154;4.498;2023-03-03T01:11:43;102588.16;;;3.76;83.84
72414;BME280;60995;52.154;4.498;2023-03-03T01:14:00;102583.69;;;3.77;83.47
72414;BME280;60995;52.154;4.498;2023-03-03T01:16:16;102584.47;;;3.79;83.30
72414;BME280;60995;52.154;4.498;2023-03-03T01:18:34;102584.00;;;3.66;83.69
72414;BME280;60995;52.154;4.498;2023-03-03T01:20:52;102587.38;;;3.73;83.85
72414;BME280;60995;52.154;4.498;2023-03-03T01:23:08;102584.66;;;3.74;83.41
72414;BME280;60995;52.154;4.498;2023-03-03T01:25:24;102588.44;;;3.67;83.76
72414;BME280;60995;52.154;4.498;2023-03-03T01:27:41;102582.06;;;3.71;83.32
72414;BME280;60995;52.154;4.498;2023-03-03T01:29:57;102592.72;;;3.73;83.53
72414;BME280;60995;52.154;4.498;2023-03-03T01:32:13;102587.47;;;3.70;83.10
72414;BME280;60995;52.154;4.498;2023-03-03T01:34:30;102584.06;;;3.64;83.48
72414;BME280;60995;52.154;4.498;2023-03-03T01:36:46;102578.56;;;3.68;83.68
72414;BME280;60995;52.154;4.498;2023-03-03T01:39:03;102582.06;;;3.71;83.26
72414;BME280;60995;52.154;4.498;2023-03-03T01:41:19;102585.16;;;3.59;83.49
72414;BME280;60995;52.154;4.498;2023-03-03T01:43:43;102592.78;;;3.71;83.05
72414;BME280;60995;52.154;4.498;2023-03-03T01:48:22;102591.00;;;3.72;82.96
72414;BME280;60995;52.154;4.498;2023-03-03T01:50:48;102583.50;;;3.55;82.92
72414;BME280;60995;52.154;4.498;2023-03-03T01:53:19;102584.72;;;3.71;83.28
72414;BME280;60995;52.154;4.498;2023-03-03T01:55:41;102587.59;;;3.67;82.80
72414;BME280;60995;52.154;4.498;2023-03-03T01:58:25;102585.75;;;3.67;82.65
72414;BME280;60995;52.154;4.498;2023-03-03T02:00:45;102580.41;;;3.67;82.77
72414;BME280;60995;52.154;4.498;2023-03-03T02:03:08;102591.25;;;3.64;82.58
72414;BME280;60995;52.154;4.498;2023-03-03T02:05:26;102585.81;;;3.66;82.29
72414;BME280;60995;52.154;4.498;2023-03-03T02:07:44;102579.38;;;3.71;82.28
72414;BME280;60995;52.154;4.498;2023-03-03T02:12:31;102573.81;;;3.77;82.16
72414;BME280;60995;52.154;4.498;2023-03-03T02:14:53;102575.88;;;3.69;81.94
72414;BME280;60995;52.154;4.498;2023-03-03T02:17:10;102577.09;;;3.59;82.68
72414;BME280;60995;52.154;4.498;2023-03-03T02:19:45;102581.81;;;3.51;82.42
72414;BME280;60995;52.154;4.498;2023-03-03T02:22:10;102574.91;;;3.43;82.79
72414;BME280;60995;52.154;4.498;2023-03-03T02:24:42;102579.03;;;3.54;82.17
72414;BME280;60995;52.154;4.498;2023-03-03T02:27:05;102575.28;;;3.59;82.02
72414;BME280;60995;52.154;4.498;2023-03-03T02:29:22;102581.91;;;3.47;81.97
72414;BME280;60995;52.154;4.498;2023-03-03T02:31:38;102570.44;;;3.42;82.71
72414;BME280;60995;52.154;4.498;2023-03-03T02:33:55;102578.13;;;3.55;82.31
72414;BME280;60995;52.154;4.498;2023-03-03T02:36:13;102577.28;;;3.53;82.42
72414;BME280;60995;52.154;4.498;2023-03-03T02:38:47;102565.19;;;3.39;82.39
72414;BME280;60995;52.154;4.498;2023-03-03T02:43:58;102580.06;;;3.50;82.18
72414;BME280;60995;52.154;4.498;2023-03-03T02:46:15;102563.91;;;3.51;82.10
72414;BME280;60995;52.154;4.498;2023-03-03T02:48:31;102572.78;;;3.53;81.75
72414;BME280;60995;52.154;4.498;2023-03-03T02:50:47;102569.28;;;3.51;82.17
72414;BME280;60995;52.154;4.498;2023-03-03T02:53:07;102568.38;;;3.51;81.76
72414;BME280;60995;52.154;4.498;2023-03-03T02:55:23;102564.28;;;3.40;82.10
72414;BME280;60995;52.154;4.498;2023-03-03T02:57:39;102557.31;;;3.33;82.51
72414;BME280;60995;52.154;4.498;2023-03-03T02:59:59;102568.25;;;3.27;82.71
72414;BME280;60995;52.154;4.498;2023-03-03T03:02:16;102559.81;;;3.39;83.02
72414;BME280;60995;52.154;4.498;2023-03-03T03:04:34;102568.75;;;3.40;82.42
72414;BME280;60995;52.154;4.498;2023-03-03T03:06:51;102563.72;;;3.29;82.47
72414;BME280;60995;52.154;4.498;2023-03-03T03:09:13;102566.22;;;3.35;82.73
72414;BME280;60995;52.154;4.498;2023-03-03T03:11:33;102576.97;;;3.34;82.65
72414;BME280;60995;52.154;4.498;2023-03-03T03:13:50;102565.66;;;3.24;82.64
72414;BME280;60995;52.154;4.498;2023-03-03T03:16:07;102577.19;;;3.27;83.25
72414;BME280;60995;52.154;4.498;2023-03-03T03:18:24;102579.94;;;3.24;83.31
72414;BME280;60995;52.154;4.498;2023-03-03T03:20:42;102573.59;;;3.27;83.36
72414;BME280;60995;52.154;4.498;2023-03-03T03:22:59;102573.44;;;3.33;83.16
72414;BME280;60995;52.154;4.498;2023-03-03T03:25:15;102577.31;;;3.23;83.31
72414;BME280;60995;52.154;4.498;2023-03-03T03:27:31;102579.66;;;3.34;83.08
72414;BME280;60995;52.154;4.498;2023-03-03T03:29:48;102577.88;;;3.34;83.01
72414;BME280;60995;52.154;4.498;2023-03-03T03:32:04;102578.09;;;3.26;83.46
72414;BME280;60995;52.154;4.498;2023-03-03T03:34:20;102578.34;;;3.19;83.33
72414;BME280;60995;52.154;4.498;2023-03-03T03:36:37;102580.16;;;3.18;83.40
72414;BME280;60995;52.154;4.498;2023-03-03T03:38:54;102588.91;;;3.23;83.34
72414;BME280;60995;52.154;4.498;2023-03-03T03:41:11;102582.78;;;3.20;83.58
72414;BME280;60995;52.154;4.498;2023-03-03T03:43:28;102579.06;;;3.24;83.57
72414;BME280;60995;52.154;4.498;2023-03-03T03:45:45;102589.53;;;3.33;83.28
72414;BME280;60995;52.154;4.498;2023-03-03T03:48:01;102583.59;;;3.22;83.42
72414;BME280;60995;52.154;4.498;2023-03-03T03:50:18;102580.00;;;3.23;83.55
72414;BME280;60995;52.154;4.498;2023-03-03T03:52:34;102585.25;;;3.27;82.88
72414;BME280;60995;52.154;4.498;2023-03-03T03:54:50;102590.88;;;3.18;83.15
72414;BME280;60995;52.154;4.498;2023-03-03T03:57:07;102597.06;;;3.20;83.09
72414;BME280;60995;52.154;4.498;2023-03-03T03:59:23;102592.72;;;3.16;82.93
72414;BME280;60995;52.154;4.498;2023-03-03T04:01:40;102597.28;;;3.12;82.76
72414;BME280;60995;52.154;4.498;2023-03-03T04:03:56;102602.94;;;3.03;83.47
72414;BME280;60995;52.154;4.498;2023-03-03T04:06:12;102597.47;;;3.06;83.88
72414;BME280;60995;52.154;4.498;2023-03-03T04:08:29;102601.16;;;3.02;84.08
72414;BME280;60995;52.154;4.498;2023-03-03T04:10:46;102593.97;;;3.04;83.42
72414;BME280;60995;52.154;4.498;2023-03-03T04:13:05;102601.06;;;3.07;83.57
72414;BME280;60995;52.154;4.498;2023-03-03T04:15:21;102601.66;;;2.85;83.49
72414;BME280;60995;52.154;4.498;2023-03-03T04:17:38;102617.38;;;2.68;83.94
72414;BME280;60995;52.154;4.498;2023-03-03T04:19:55;102613.38;;;2.50;85.45
72414;BME280;60995;52.154;4.498;2023-03-03T04:22:13;102615.03;;;2.54;84.89
72414;BME280;60995;52.154;4.498;2023-03-03T04:24:30;102605.44;;;2.46;85.04
72414;BME280;60995;52.154;4.498;2023-03-03T04:26:46;102606.31;;;2.47;84.40
72414;BME280;60995;52.154;4.498;2023-03-03T04:29:03;102607.09;;;2.51;84.46
72414;BME280;60995;52.154;4.498;2023-03-03T04:31:21;102607.56;;;2.32;84.51
72414;BME280;60995;52.154;4.498;2023-03-03T04:33:46;102609.44;;;2.30;84.90
72414;BME280;60995;52.154;4.498;2023-03-03T04:36:06;102612.13;;;2.30;85.35
72414;BME280;60995;52.154;4.498;2023-03-03T04:38:23;102609.94;;;2.44;85.59
72414;BME280;60995;52.154;4.498;2023-03-03T04:41:01;102612.03;;;2.33;85.15
72414;BME280;60995;52.154;4.498;2023-03-03T04:43:29;102605.69;;;2.36;85.72
72414;BME280;60995;52.154;4.498;2023-03-03T04:45:48;102604.69;;;2.41;85.00
72414;BME280;60995;52.154;4.498;2023-03-03T04:48:05;102611.75;;;2.44;84.94
72414;BME280;60995;52.154;4.498;2023-03-03T04:50:21;102613.53;;;2.43;85.27
72414;BME280;60995;52.154;4.498;2023-03-03T04:52:38;102616.56;;;2.31;85.66
72414;BME280;60995;52.154;4.498;2023-03-03T04:55:25;102619.53;;;2.19;86.41
72414;BME280;60995;52.154;4.498;2023-03-03T04:57:42;102623.31;;;2.11;87.13
72414;BME280;60995;52.154;4.498;2023-03-03T04:59:59;102614.41;;;2.09;86.66
72414;BME280;60995;52.154;4.498;2023-03-03T05:02:15;102622.59;;;2.05;86.99
72414;BME280;60995;52.154;4.498;2023-03-03T05:04:33;102630.31;;;1.79;87.16
72414;BME280;60995;52.154;4.498;2023-03-03T05:06:50;102616.19;;;2.10;87.45
72414;BME280;60995;52.154;4.498;2023-03-03T05:09:06;102626.94;;;2.07;86.93
72414;BME280;60995;52.154;4.498;2023-03-03T05:11:23;102620.16;;;1.94;87.10
72414;BME280;60995;52.154;4.498;2023-03-03T05:13:39;102618.91;;;2.09;87.82
72414;BME280;60995;52.154;4.498;2023-03-03T05:15:56;102620.50;;;2.16;87.95
72414;BME280;60995;52.154;4.498;2023-03-03T05:18:13;102613.94;;;2.28;86.68
72414;BME280;60995;52.154;4.498;2023-03-03T05:20:32;102621.91;;;2.31;86.60
72414;BME280;60995;52.154;4.498;2023-03-03T05:22:48;102618.53;;;2.23;85.79
72414;BME280;60995;52.154;4.498;2023-03-03T05:25:05;102626.31;;;1.97;87.12
72414;BME280;60995;52.154;4.498;2023-03-03T05:27:22;102629.28;;;1.87;87.47
72414;BME280;60995;52.154;4.498;2023-03-03T05:29:42;102626.00;;;1.74;87.93
72414;BME280;60995;52.154;4.498;2023-03-03T05:31:58;102626.59;;;1.85;87.97
72414;BME280;60995;52.154;4.498;2023-03-03T05:34:15;102630.75;;;1.61;88.01
72414;BME280;60995;52.154;4.498;2023-03-03T05:36:35;102619.91;;;2.03;88.04
72414;BME280;60995;52.154;4.498;2023-03-03T05:38:51;102618.47;;;1.90;87.09
72414;BME280;60995;52.154;4.498;2023-03-03T05:41:16;102616.03;;;1.80;87.81
72414;BME280;60995;52.154;4.498;2023-03-03T05:46:27;102620.53;;;1.78;88.00
72414;BME280;60995;52.154;4.498;2023-03-03T05:48:44;102618.78;;;1.77;88.74
72414;BME280;60995;52.154;4.498;2023-03-03T05:51:03;102616.06;;;1.79;88.44
72414;BME280;60995;52.154;4.498;2023-03-03T05:53:23;102618.38;;;1.93;88.11
72414;BME280;60995;52.154;4.498;2023-03-03T05:55:39;102614.38;;;1.75;88.59
72414;BME280;60995;52.154;4.498;2023-03-03T05:57:59;102624.28;;;1.71;88.85
72414;BME280;60995;52.154;4.498;2023-03-03T06:06:54;102621.53;;;2.10;87.45
72414;BME280;60995;52.154;4.498;2023-03-03T06:09:13;102629.19;;;1.90;87.23
72414;BME280;60995;52.154;4.498;2023-03-03T06:11:34;102631.53;;;2.04;86.97
72414;BME280;60995;52.154;4.498;2023-03-03T06:13:50;102629.31;;;1.84;86.88
72414;BME280;60995;52.154;4.498;2023-03-03T06:16:07;102637.75;;;2.04;87.83
72414;BME280;60995;52.154;4.498;2023-03-03T06:18:23;102633.25;;;2.06;87.29
72414;BME280;60995;52.154;4.498;2023-03-03T06:20:39;102641.28;;;2.06;86.56
72414;BME280;60995;52.154;4.498;2023-03-03T06:22:56;102639.75;;;1.96;87.09
72414;BME280;60995;52.154;4.498;2023-03-03T06:25:12;102641.19;;;2.09;87.93
72414;BME280;60995;52.154;4.498;2023-03-03T06:27:29;102643.19;;;2.01;87.18
72414;BME280;60995;52.154;4.498;2023-03-03T06:29:45;102639.97;;;1.85;87.17
72414;BME280;60995;52.154;4.498;2023-03-03T06:32:01;102639.19;;;2.18;88.11
72414;BME280;60995;52.154;4.498;2023-03-03T06:34:21;102645.84;;;2.37;87.27
72414;BME280;60995;52.154;4.498;2023-03-03T06:36:48;102646.59;;;2.44;87.17
72414;BME280;60995;52.154;4.498;2023-03-03T06:39:04;102647.38;;;2.13;87.16
72414;BME280;60995;52.154;4.498;2023-03-03T06:41:23;102655.72;;;2.35;87.41
72414;BME280;60995;52.154;4.498;2023-03-03T06:43:40;102647.31;;;2.51;87.07
72414;BME280;60995;52.154;4.498;2023-03-03T06:45:56;102654.81;;;2.36;87.25
72414;BME280;60995;52.154;4.498;2023-03-03T06:48:36;102660.19;;;2.36;87.83
72414;BME280;60995;52.154;4.498;2023-03-03T06:50:52;102656.69;;;2.33;87.45
72414;BME280;60995;52.154;4.498;2023-03-03T06:53:14;102655.59;;;2.41;87.74
72414;BME280;60995;52.154;4.498;2023-03-03T06:55:42;102654.56;;;2.45;87.10
72414;BME280;60995;52.154;4.498;2023-03-03T06:58:00;102669.91;;;2.73;86.59
72414;BME280;60995;52.154;4.498;2023-03-03T07:00:26;102667.19;;;2.75;86.52
72414;BME280;60995;52.154;4.498;2023-03-03T07:02:43;102667.72;;;2.88;86.30
72414;BME280;60995;52.154;4.498;2023-03-03T07:05:00;102672.16;;;2.89;85.42
72414;BME280;60995;52.154;4.498;2023-03-03T07:07:25;102668.03;;;2.77;85.94
72414;BME280;60995;52.154;4.498;2023-03-03T07:09:44;102669.75;;;2.79;86.21
72414;BME280;60995;52.154;4.498;2023-03-03T07:12:09;102668.69;;;2.85;86.60
72414;BME280;60995;52.154;4.498;2023-03-03T07:14:30;102667.72;;;2.55;86.29
72414;BME280;60995;52.154;4.498;2023-03-03T07:16:55;102676.38;;;2.66;86.97
72414;BME280;60995;52.154;4.498;2023-03-03T07:19:30;102673.59;;;2.69;86.61
72414;BME280;60995;52.154;4.498;2023-03-03T07:21:50;102672.75;;;2.67;87.02
72414;BME280;60995;52.154;4.498;2023-03-03T07:24:27;102682.16;;;2.84;85.80
72414;BME280;60995;52.154;4.498;2023-03-03T07:26:44;102677.06;;;3.06;85.29
72414;BME280;60995;52.154;4.498;2023-03-03T07:29:25;102684.31;;;3.02;85.55
72414;BME280;60995;52.154;4.498;2023-03-03T07:31:45;102687.00;;;3.02;85.21
72414;BME280;60995;52.154;4.498;2023-03-03T07:34:16;102690.97;;;3.50;85.82
72414;BME280;60995;52.154;4.498;2023-03-03T07:36:36;102688.06;;;3.58;84.35
72414;BME280;60995;52.154;4.498;2023-03-03T07:38:56;102689.94;;;4.12;84.02
72414;BME280;60995;52.154;4.498;2023-03-03T07:41:17;102694.16;;;4.20;82.68
72414;BME280;60995;52.154;4.498;2023-03-03T07:43:49;102691.41;;;4.23;82.54
72414;BME280;60995;52.154;4.498;2023-03-03T07:48:33;102702.69;;;4.34;80.33
72414;BME280;60995;52.154;4.498;2023-03-03T07:50:51;102694.50;;;4.37;79.14
72414;BME280;60995;52.154;4.498;2023-03-03T07:53:24;102701.47;;;3.88;81.10
72414;BME280;60995;52.154;4.498;2023-03-03T07:55:44;102699.63;;;3.90;80.64
72414;BME280;60995;52.154;4.498;2023-03-03T08:02:44;102696.72;;;4.24;81.74
72414;BME280;60995;52.154;4.498;2023-03-03T08:05:35;102705.31;;;4.36;79.17
72414;BME280;60995;52.154;4.498;2023-03-03T08:10:35;102716.47;;;5.02;76.39
72414;BME280;60995;52.154;4.498;2023-03-03T08:13:21;102709.50;;;5.45;78.08
72414;BME280;60995;52.154;4.498;2023-03-03T08:16:01;102712.88;;;5.74;76.93
72414;BME280;60995;52.154;4.498;2023-03-03T08:21:28;102717.97;;;5.58;73.82
72414;BME280;60995;52.154;4.498;2023-03-03T08:23:39;102721.53;;;6.06;74.69
72414;BME280;60995;52.154;4.498;2023-03-03T08:25:56;102726.34;;;6.42;73.31
72414;BME280;60995;52.154;4.498;2023-03-03T08:28:12;102735.13;;;6.48;70.78
72414;BME280;60995;52.154;4.498;2023-03-03T08:30:29;102735.56;;;6.59;71.48
72414;BME280;60995;52.154;4.498;2023-03-03T08:32:47;102732.66;;;5.50;73.63
72414;BME280;60995;52.154;4.498;2023-03-03T08:35:03;102736.44;;;5.20;75.83
72414;BME280;60995;52.154;4.498;2023-03-03T08:37:20;102735.53;;;5.45;75.92
72414;BME280;60995;52.154;4.498;2023-03-03T08:39:37;102742.22;;;6.28;72.63
72414;BME280;60995;52.154;4.498;2023-03-03T08:41:54;102738.09;;;6.19;71.26
72414;BME280;60995;52.154;4.498;2023-03-03T08:44:10;102747.53;;;5.84;73.91
72414;BME280;60995;52.154;4.498;2023-03-03T08:46:27;102745.00;;;6.69;70.45
72414;BME280;60995;52.154;4.498;2023-03-03T08:48:43;102743.47;;;6.41;72.75
72414;BME280;60995;52.154;4.498;2023-03-03T08:51:00;102742.16;;;6.29;72.39
72414;BME280;60995;52.154;4.498;2023-03-03T08:53:18;102746.81;;;6.69;70.44
72414;BME280;60995;52.154;4.498;2023-03-03T08:55:36;102744.22;;;6.23;72.90
72414;BME280;60995;52.154;4.498;2023-03-03T08:57:52;102750.81;;;7.22;69.75
72414;BME280;60995;52.154;4.498;2023-03-03T09:00:11;102755.50;;;5.63;73.47
72414;BME280;60995;52.154;4.498;2023-03-03T09:02:31;102751.19;;;6.06;75.48
72414;BME280;60995;52.154;4.498;2023-03-03T09:04:48;102754.97;;;6.67;71.45
72414;BME280;60995;52.154;4.498;2023-03-03T09:07:07;102755.41;;;6.78;71.54
72414;BME280;60995;52.154;4.498;2023-03-03T09:09:24;102747.94;;;7.45;68.64
72414;BME280;60995;52.154;4.498;2023-03-03T09:11:41;102746.72;;;7.53;69.11
72414;BME280;60995;52.154;4.498;2023-03-03T09:14:26;102752.56;;;8.39;66.08
72414;BME280;60995;52.154;4.498;2023-03-03T09:16:52;102751.56;;;9.29;64.31
72414;BME280;60995;52.154;4.498;2023-03-03T09:19:31;102748.84;;;9.47;62.60
72414;BME280;60995;52.154;4.498;2023-03-03T09:21:51;102747.31;;;9.07;64.90
72414;BME280;60995;52.154;4.498;2023-03-03T09:24:23;102752.09;;;8.85;64.98
72414;BME280;60995;52.154;4.498;2023-03-03T09:26:47;102747.41;;;9.39;68.19
72414;BME280;60995;52.154;4.498;2023-03-03T09:31:37;102746.16;;;10.74;58.23
72414;BME280;60995;52.154;4.498;2023-03-03T09:34:15;102734.19;;;11.94;56.96
72414;BME280;60995;52.154;4.498;2023-03-03T09:36:47;102736.19;;;12.34;53.94
72414;BME280;60995;52.154;4.498;2023-03-03T09:39:16;102734.06;;;12.52;53.29
72414;BME280;60995;52.154;4.498;2023-03-03T09:44:39;102739.72;;;14.29;48.87
72414;BME280;60995;52.154;4.498;2023-03-03T09:47:27;102738.72;;;14.79;46.76
72414;BME280;60995;52.154;4.498;2023-03-03T09:56:33;102728.22;;;16.65;44.65
72414;BME280;60995;52.154;4.498;2023-03-03T10:01:49;102727.78;;;15.48;44.80
72414;BME280;60995;52.154;4.498;2023-03-03T10:15:36;102736.00;;;18.26;37.26
72414;BME280;60995;52.154;4.498;2023-03-03T10:32:48;102727.53;;;14.09;47.10
72414;BME280;60995;52.154;4.498;2023-03-03T11:01:50;102716.75;;;16.72;38.83
72414;BME280;60995;52.154;4.498;2023-03-03T11:04:49;102725.66;;;17.58;37.85
72414;BME280;60995;52.154;4.498;2023-03-03T11:07:36;102723.53;;;16.56;38.86
72414;BME280;60995;52.154;4.498;2023-03-03T11:12:56;102712.63;;;16.66;37.83
72414;BME280;60995;52.154;4.498;2023-03-03T11:15:58;102720.81;;;15.67;39.13
72414;BME280;60995;52.154;4.498;2023-03-03T11:18:34;102722.28;;;12.38;45.81
72414;BME280;60995;52.154;4.498;2023-03-03T11:31:56;102723.28;;;13.16;47.13
72414;BME280;60995;52.154;4.498;2023-03-03T11:37:04;102713.38;;;16.89;39.08
72414;BME280;60995;52.154;4.498;2023-03-03T11:39:29;102708.56;;;16.93;38.66
72414;BME280;60995;52.154;4.498;2023-03-03T11:44:32;102702.81;;;16.63;37.41
72414;BME280;60995;52.154;4.498;2023-03-03T11:47:09;102722.88;;;14.35;40.74
72414;BME280;60995;52.154;4.498;2023-03-03T11:49:45;102714.13;;;13.04;44.37
72414;BME280;60995;52.154;4.498;2023-03-03T11:57:20;102715.78;;;11.56;47.19
72414;BME280;60995;52.154;4.498;2023-03-03T12:02:13;102708.44;;;11.58;46.94
72414;BME280;60995;52.154;4.498;2023-03-03T12:04:43;102709.38;;;11.57;46.42
72414;BME280;60995;52.154;4.498;2023-03-03T12:10:13;102700.94;;;11.18;46.07
72414;BME280;60995;52.154;4.498;2023-03-03T12:12:44;102713.25;;;10.95;47.40
72414;BME280;60995;52.154;4.498;2023-03-03T12:18:22;102709.47;;;10.67;50.06
72414;BME280;60995;52.154;4.498;2023-03-03T12:21:31;102700.59;;;10.80;50.48
72414;BME280;60995;52.154;4.498;2023-03-03T12:24:22;102693.22;;;10.82;50.82
72414;BME280;60995;52.154;4.498;2023-03-03T12:26:50;102693.69;;;10.43;52.01
72414;BME280;60995;52.154;4.498;2023-03-03T12:35:35;102683.00;;;11.45;48.88
72414;BME280;60995;52.154;4.498;2023-03-03T12:49:23;102690.13;;;10.88;49.09
72414;BME280;60995;52.154;4.498;2023-03-03T12:52:34;102690.06;;;11.33;48.16
72414;BME280;60995;52.154;4.498;2023-03-03T12:58:16;102681.03;;;10.89;48.66
72414;BME280;60995;52.154;4.498;2023-03-03T13:01:07;102679.84;;;10.93;47.66
72414;BME280;60995;52.154;4.498;2023-03-03T13:08:58;102681.16;;;11.31;46.93
72414;BME280;60995;52.154;4.498;2023-03-03T13:13:57;102680.72;;;11.08;47.65
72414;BME280;60995;52.154;4.498;2023-03-03T13:16:59;102684.47;;;10.76;48.20
72414;BME280;60995;52.154;4.498;2023-03-03T13:19:22;102686.19;;;10.63;49.26
72414;BME280;60995;52.154;4.498;2023-03-03T13:21:49;102680.75;;;10.63;49.37
72414;BME280;60995;52.154;4.498;2023-03-03T13:24:32;102670.72;;;10.80;48.45
72414;BME280;60995;52.154;4.498;2023-03-03T13:27:05;102686.19;;;10.63;48.06
72414;BME280;60995;52.154;4.498;2023-03-03T13:29:29;102670.63;;;10.81;48.92
72414;BME280;60995;52.154;4.498;2023-03-03T13:32:18;102677.22;;;10.77;48.80
72414;BME280;60995;52.154;4.498;2023-03-03T13:37:52;102678.84;;;10.65;49.69
72414;BME280;60995;52.154;4.498;2023-03-03T13:45:24;102670.66;;;10.96;49.86
72414;BME280;60995;52.154;4.498;2023-03-03T14:02:00;102678.78;;;9.88;51.97
72414;BME280;60995;52.154;4.498;2023-03-03T14:04:52;102678.47;;;10.25;51.24
72414;BME280;60995;52.154;4.498;2023-03-03T14:07:23;102675.25;;;10.18;51.47
72414;BME280;60995;52.154;4.498;2023-03-03T14:12:41;102661.03;;;10.45;51.60
72414;BME280;60995;52.154;4.498;2023-03-03T14:16:15;102663.66;;;10.31;52.03
72414;BME280;60995;52.154;4.498;2023-03-03T14:20:57;102668.88;;;10.34;50.83
72414;BME280;60995;52.154;4.498;2023-03-03T14:23:58;102670.59;;;10.20;51.17
72414;BME280;60995;52.154;4.498;2023-03-03T14:26:49;102667.84;;;10.52;50.99
72414;BME280;60995;52.154;4.498;2023-03-03T14:31:44;102660.97;;;10.15;51.09
72414;BME280;60995;52.154;4.498;2023-03-03T14:39:38;102654.94;;;10.09;50.24
72414;BME280;60995;52.154;4.498;2023-03-03T14:41:55;102651.16;;;10.28;49.67
72414;BME280;60995;52.154;4.498;2023-03-03T14:44:26;102654.78;;;10.59;48.93
72414;BME280;60995;52.154;4.498;2023-03-03T14:47:01;102651.31;;;10.86;48.50
72414;BME280;60995;52.154;4.498;2023-03-03T14:49:47;102663.16;;;10.24;49.25
72414;BME280;60995;52.154;4.498;2023-03-03T14:54:36;102655.84;;;9.94;50.01
72414;BME280;60995;52.154;4.498;2023-03-03T14:57:04;102656.56;;;9.82;50.24
72414;BME280;60995;52.154;4.498;2023-03-03T14:59:30;102650.84;;;10.18;49.48
72414;BME280;60995;52.154;4.498;2023-03-03T15:01:46;102650.06;;;10.00;49.86
72414;BME280;60995;52.154;4.498;2023-03-03T15:06:38;102645.06;;;10.08;48.90
72414;BME280;60995;52.154;4.498;2023-03-03T15:09:31;102645.56;;;10.31;49.07
72414;BME280;60995;52.154;4.498;2023-03-03T15:11:55;102644.81;;;10.13;48.86
72414;BME280;60995;52.154;4.498;2023-03-03T15:14:15;102649.13;;;9.69;50.33
72414;BME280;60995;52.154;4.498;2023-03-03T15:16:34;102643.34;;;9.59;49.76
72414;BME280;60995;52.154;4.498;2023-03-03T15:21:24;102640.53;;;9.77;49.21
72414;BME280;60995;52.154;4.498;2023-03-03T15:26:55;102639.75;;;9.59;49.40
72414;BME280;60995;52.154;4.498;2023-03-03T15:29:31;102637.84;;;9.61;49.13
72414;BME280;60995;52.154;4.498;2023-03-03T15:51:16;102634.16;;;9.78;49.80
72414;BME280;60995;52.154;4.498;2023-03-03T15:56:47;102627.19;;;9.74;50.34
72414;BME280;60995;52.154;4.498;2023-03-03T16:02:16;102626.13;;;9.60;50.71
72414;BME280;60995;52.154;4.498;2023-03-03T16:04:57;102618.44;;;9.69;50.23
72414;BME280;60995;52.154;4.498;2023-03-03T16:07:25;102628.13;;;9.41;52.19
72414;BME280;60995;52.154;4.498;2023-03-03T16:13:31;102634.06;;;8.98;51.89
72414;BME280;60995;52.154;4.498;2023-03-03T16:23:54;102627.69;;;8.66;53.34
72414;BME280;60995;52.154;4.498;2023-03-03T16:26:37;102632.84;;;8.70;53.59
72414;BME280;60995;52.154;4.498;2023-03-03T16:32:09;102635.53;;;8.70;53.09
72414;BME280;60995;52.154;4.498;2023-03-03T16:34:38;102626.78;;;8.65;53.11
72414;BME280;60995;52.154;4.498;2023-03-03T16:42:33;102630.63;;;8.61;53.60
72414;BME280;60995;52.154;4.498;2023-03-03T16:52:47;102626.28;;;8.39;54.59
72414;BME280;60995;52.154;4.498;2023-03-03T16:55:17;102623.78;;;8.71;54.77
72414;BME280;60995;52.154;4.498;2023-03-03T16:58:03;102628.56;;;8.49;55.32